createdAt,value
2017-01-21T00:00:05.160Z,84.74
2017-01-21T00:01:05.149Z,84.27
2017-01-21T00:02:05.135Z,84.36
2017-01-21T00:03:05.123Z,84.94
2017-01-21T00:04:05.111Z,84.65
2017-01-21T00:05:05.098Z,84.46
2017-01-21T00:06:05.088Z,84.65
2017-01-21T00:07:05.073Z,84.65
2017-01-21T00:08:05.057Z,84.65
2017-01-21T00:09:05.074Z,84.65
2017-01-21T00:10:05.033Z,84.84
2017-01-21T00:11:05.020Z,84.46
2017-01-21T00:12:05.008Z,85.03
2017-01-21T00:13:04.995Z,84.36
2017-01-21T00:14:04.988Z,84.27
2017-01-21T00:15:04.975Z,83.98
2017-01-21T00:16:04.955Z,84.08
2017-01-21T00:17:04.945Z,83.98
2017-01-21T00:18:04.934Z,84.08
2017-01-21T00:19:04.918Z,84.36
2017-01-21T00:20:04.908Z,84.08
2017-01-21T00:21:04.892Z,83.98
2017-01-21T00:22:04.880Z,84.27
2017-01-21T00:23:04.868Z,84.65
2017-01-21T00:24:04.854Z,84.17
2017-01-21T00:25:04.867Z,84.17
2017-01-21T00:26:04.829Z,83.98
2017-01-21T00:27:04.819Z,84.36
2017-01-21T00:28:04.807Z,83.98
2017-01-21T00:29:04.792Z,84.46
2017-01-21T00:30:04.779Z,84.36
2017-01-21T00:31:04.766Z,84.84
2017-01-21T00:32:04.752Z,84.65
2017-01-21T00:33:04.740Z,84.74
2017-01-21T00:34:05.115Z,84.94
2017-01-21T00:35:04.715Z,84.46
2017-01-21T00:36:04.701Z,84.55
2017-01-21T00:37:04.689Z,83.89
2017-01-21T00:38:04.676Z,84.08
2017-01-21T00:39:04.665Z,84.08
2017-01-21T00:40:04.649Z,84.08
2017-01-21T00:41:04.637Z,84.08
2017-01-21T00:42:04.624Z,84.27
2017-01-21T00:43:04.615Z,84.17
2017-01-21T00:44:04.599Z,84.08
2017-01-21T00:45:04.591Z,84.84
2017-01-21T00:46:04.575Z,84.27
2017-01-21T00:47:04.562Z,84.17
2017-01-21T00:48:04.547Z,84.17
2017-01-21T00:49:04.539Z,84.08
2017-01-21T00:50:04.522Z,84.17
2017-01-21T00:51:04.508Z,84.27
2017-01-21T00:52:04.496Z,84.17
2017-01-21T00:53:04.484Z,84.17
2017-01-21T00:54:04.470Z,84.46
2017-01-21T00:55:04.462Z,84.08
2017-01-21T00:56:04.445Z,83.98
2017-01-21T00:57:04.432Z,83.98
2017-01-21T00:58:04.418Z,84.08
2017-01-21T00:59:04.408Z,84.08
2017-01-21T01:00:04.395Z,84.36
2017-01-21T01:01:04.380Z,83.98
2017-01-21T01:02:04.367Z,84.36
2017-01-21T01:03:04.354Z,84.36
2017-01-21T01:04:04.345Z,84.36
2017-01-21T01:05:04.328Z,84.46
2017-01-21T01:06:04.317Z,84.36
2017-01-21T01:07:04.305Z,84.36
2017-01-21T01:08:04.292Z,83.89
2017-01-21T01:09:04.279Z,84.08
2017-01-21T01:10:04.270Z,84.08
2017-01-21T01:11:04.259Z,84.84
2017-01-21T01:12:04.240Z,84.46
2017-01-21T01:13:04.228Z,84.08
2017-01-21T01:14:04.214Z,84.46
2017-01-21T01:15:04.201Z,84.17
2017-01-21T01:16:04.189Z,84.27
2017-01-21T01:17:04.175Z,84.17
2017-01-21T01:18:04.163Z,83.98
2017-01-21T01:19:04.157Z,84.17
2017-01-21T01:20:04.525Z,84.08
2017-01-21T01:21:04.127Z,84.08
2017-01-21T01:22:04.113Z,84.36
2017-01-21T01:23:04.099Z,84.17
2017-01-21T01:24:04.085Z,84.46
2017-01-21T01:25:04.074Z,84.55
2017-01-21T01:26:04.060Z,84.08
2017-01-21T01:27:04.050Z,83.98
2017-01-21T01:28:04.034Z,84.17
2017-01-21T01:29:04.024Z,84.46
2017-01-21T01:30:04.008Z,84.17
2017-01-21T01:31:03.995Z,84.27
2017-01-21T01:32:03.984Z,84.36
2017-01-21T01:33:03.972Z,84.36
2017-01-21T01:34:03.959Z,84.74
2017-01-21T01:35:03.951Z,83.98
2017-01-21T01:36:03.934Z,84.08
2017-01-21T01:37:03.919Z,84.17
2017-01-21T01:38:03.909Z,84.17
2017-01-21T01:39:03.896Z,84.65
2017-01-21T01:40:03.882Z,84.08
2017-01-21T01:41:03.870Z,84.08
2017-01-21T01:42:03.857Z,84.08
2017-01-21T01:43:03.846Z,84.27
2017-01-21T01:44:03.832Z,84.27
2017-01-21T01:45:03.819Z,84.27
2017-01-21T01:46:03.805Z,83.98
2017-01-21T01:47:03.797Z,84.27
2017-01-21T01:48:03.780Z,83.98
2017-01-21T01:49:04.156Z,83.89
2017-01-21T01:50:03.758Z,83.8
2017-01-21T01:51:04.127Z,83.89
2017-01-21T01:52:03.729Z,83.8
2017-01-21T01:53:03.718Z,84.08
2017-01-21T01:54:03.707Z,83.98
2017-01-21T01:55:03.695Z,83.7
2017-01-21T01:56:03.678Z,83.7
2017-01-21T01:57:03.666Z,83.89
2017-01-21T01:58:03.655Z,83.89
2017-01-21T01:59:03.643Z,84.17
2017-01-21T02:00:03.628Z,83.61
2017-01-21T02:01:03.615Z,83.7
2017-01-21T02:02:03.603Z,84.08
2017-01-21T02:03:03.591Z,83.8
2017-01-21T02:04:03.580Z,83.7
2017-01-21T02:05:03.566Z,83.98
2017-01-21T02:06:03.553Z,83.51
2017-01-21T02:07:03.539Z,83.8
2017-01-21T02:08:03.938Z,83.89
2017-01-21T02:09:03.516Z,83.23
2017-01-21T02:10:03.503Z,83.42
2017-01-21T02:11:03.491Z,83.42
2017-01-21T02:12:03.477Z,83.23
2017-01-21T02:13:03.463Z,83.89
2017-01-21T02:14:03.454Z,83.8
2017-01-21T02:15:03.440Z,83.7
2017-01-21T02:16:03.813Z,83.98
2017-01-21T02:17:03.418Z,83.7
2017-01-21T02:18:03.401Z,83.51
2017-01-21T02:19:03.388Z,83.04
2017-01-21T02:20:03.378Z,83.23
2017-01-21T02:21:03.365Z,83.51
2017-01-21T02:22:03.352Z,83.42
2017-01-21T02:23:03.338Z,83.8
2017-01-21T02:24:03.328Z,83.61
2017-01-21T02:25:03.314Z,83.89
2017-01-21T02:26:03.299Z,83.8
2017-01-21T02:27:03.288Z,83.89
2017-01-21T02:28:03.277Z,83.61
2017-01-21T02:29:03.262Z,83.61
2017-01-21T02:30:03.249Z,83.89
2017-01-21T02:31:03.238Z,83.89
2017-01-21T02:32:03.225Z,83.98
2017-01-21T02:33:03.212Z,83.89
2017-01-21T02:34:03.201Z,83.8
2017-01-21T02:35:03.191Z,83.8
2017-01-21T02:36:03.176Z,83.61
2017-01-21T02:37:03.162Z,83.89
2017-01-21T02:38:03.151Z,83.89
2017-01-21T02:39:03.139Z,83.51
2017-01-21T02:40:03.126Z,83.98
2017-01-21T02:41:03.503Z,83.98
2017-01-21T02:42:03.099Z,83.7
2017-01-21T02:43:03.087Z,84.17
2017-01-21T02:44:03.074Z,84.17
2017-01-21T02:45:03.064Z,83.98
2017-01-21T02:46:03.050Z,84.17
2017-01-21T02:47:03.036Z,84.17
2017-01-21T02:48:03.024Z,84.27
2017-01-21T02:49:03.010Z,83.89
2017-01-21T02:50:03.001Z,83.89
2017-01-21T02:51:02.987Z,83.89
2017-01-21T02:52:02.972Z,83.89
2017-01-21T02:53:02.960Z,84.27
2017-01-21T02:54:02.948Z,84.27
2017-01-21T02:55:02.937Z,84.17
2017-01-21T02:56:02.923Z,84.65
2017-01-21T02:57:02.909Z,84.08
2017-01-21T02:58:02.899Z,84.36
2017-01-21T02:59:02.883Z,84.55
2017-01-21T03:00:02.871Z,83.98
2017-01-21T03:01:02.859Z,83.98
2017-01-21T03:02:02.846Z,83.98
2017-01-21T03:03:02.834Z,84.36
2017-01-21T03:04:02.820Z,84.17
2017-01-21T03:05:02.809Z,84.55
2017-01-21T03:06:02.795Z,84.46
2017-01-21T03:07:02.785Z,84.27
2017-01-21T03:08:02.772Z,84.46
2017-01-21T03:09:02.761Z,84.36
2017-01-21T03:10:02.746Z,84.27
2017-01-21T03:11:02.736Z,84.36
2017-01-21T03:12:02.721Z,83.89
2017-01-21T03:13:03.092Z,84.17
2017-01-21T03:14:02.695Z,84.17
2017-01-21T03:15:02.682Z,84.08
2017-01-21T03:16:02.668Z,83.98
2017-01-21T03:17:02.658Z,83.89
2017-01-21T03:18:02.648Z,84.46
2017-01-21T03:19:02.633Z,84.08
2017-01-21T03:20:02.619Z,84.27
2017-01-21T03:21:02.606Z,84.17
2017-01-21T03:22:02.598Z,83.98
2017-01-21T03:23:02.581Z,84.08
2017-01-21T03:24:02.571Z,84.17
2017-01-21T03:25:02.556Z,84.55
2017-01-21T03:26:02.544Z,84.55
2017-01-21T03:27:02.532Z,84.08
2017-01-21T03:28:02.518Z,84.08
2017-01-21T03:29:02.505Z,84.08
2017-01-21T03:30:02.493Z,84.08
2017-01-21T03:31:02.480Z,84.17
2017-01-21T03:32:02.468Z,84.17
2017-01-21T03:33:02.463Z,84.17
2017-01-21T03:34:02.443Z,84.27
2017-01-21T03:35:02.429Z,83.98
2017-01-21T03:36:02.418Z,84.08
2017-01-21T03:37:02.404Z,84.08
2017-01-21T03:38:02.392Z,83.98
2017-01-21T03:39:02.380Z,83.61
2017-01-21T03:40:02.370Z,84.27
2017-01-21T03:41:02.355Z,83.7
2017-01-21T03:42:02.341Z,84.36
2017-01-21T03:43:02.329Z,84.17
2017-01-21T03:44:02.316Z,84.65
2017-01-21T03:45:02.302Z,83.98
2017-01-21T03:46:02.293Z,84.36
2017-01-21T03:47:02.277Z,83.89
2017-01-21T03:48:02.652Z,83.98
2017-01-21T03:49:02.253Z,83.98
2017-01-21T03:50:02.240Z,84.08
2017-01-21T03:51:02.227Z,84.08
2017-01-21T03:52:02.216Z,84.08
2017-01-21T03:53:02.201Z,84.17
2017-01-21T03:54:02.190Z,84.08
2017-01-21T03:55:02.176Z,84.08
2017-01-21T03:56:02.167Z,84.08
2017-01-21T03:57:02.151Z,83.89
2017-01-21T03:58:02.138Z,84.08
2017-01-21T03:59:02.127Z,84.46
2017-01-21T04:00:02.115Z,84.08
2017-01-21T04:01:02.102Z,84.46
2017-01-21T04:02:02.088Z,84.46
2017-01-21T04:03:02.076Z,84.65
2017-01-21T04:04:02.066Z,84.74
2017-01-21T04:05:02.052Z,84.84
2017-01-21T04:06:02.039Z,85.13
2017-01-21T04:07:02.026Z,85.03
2017-01-21T04:08:02.013Z,85.03
2017-01-21T04:09:02.000Z,84.46
2017-01-21T04:10:01.991Z,85.03
2017-01-21T04:11:01.977Z,84.65
2017-01-21T04:12:01.961Z,84.74
2017-01-21T04:13:01.951Z,84.55
2017-01-21T04:14:01.936Z,84.55
2017-01-21T04:15:01.923Z,84.46
2017-01-21T04:16:01.911Z,84.36
2017-01-21T04:17:01.898Z,84.46
2017-01-21T04:18:01.885Z,84.84
2017-01-21T04:19:01.872Z,84.65
2017-01-21T04:20:01.861Z,84.46
2017-01-21T04:21:01.876Z,84.55
2017-01-21T04:22:01.836Z,84.74
2017-01-21T04:23:01.823Z,84.65
2017-01-21T04:24:01.811Z,84.46
2017-01-21T04:25:01.799Z,84.94
2017-01-21T04:26:01.784Z,84.84
2017-01-21T04:27:01.772Z,84.94
2017-01-21T04:28:01.785Z,85.13
2017-01-21T04:29:01.750Z,84.94
2017-01-21T04:30:01.732Z,85.03
2017-01-21T04:31:01.722Z,84.74
2017-01-21T04:32:01.713Z,84.84
2017-01-21T04:33:01.697Z,84.46
2017-01-21T04:34:01.683Z,85.31
2017-01-21T04:35:01.672Z,85.13
2017-01-21T04:36:01.660Z,85.22
2017-01-21T04:37:01.647Z,85.13
2017-01-21T04:38:01.635Z,85.41
2017-01-21T04:39:01.620Z,85.6
2017-01-21T04:40:01.609Z,85.69
2017-01-21T04:41:01.596Z,85.5
2017-01-21T04:42:01.583Z,85.41
2017-01-21T04:43:01.573Z,85.6
2017-01-21T04:44:01.556Z,85.41
2017-01-21T04:45:01.546Z,85.41
2017-01-21T04:46:01.535Z,85.31
2017-01-21T04:47:01.520Z,85.78
2017-01-21T04:48:01.511Z,85.88
2017-01-21T04:49:01.494Z,86.45
2017-01-21T04:50:01.482Z,86.26
2017-01-21T04:51:01.470Z,86.16
2017-01-21T04:52:01.455Z,86.07
2017-01-21T04:53:01.468Z,86.26
2017-01-21T04:54:01.432Z,86.16
2017-01-21T04:55:01.417Z,86.74
2017-01-21T04:56:01.404Z,87.12
2017-01-21T04:57:01.392Z,86.83
2017-01-21T04:58:01.382Z,86.64
2017-01-21T04:59:01.367Z,87.4
2017-01-21T05:00:01.355Z,87.21
2017-01-21T05:01:01.343Z,87.12
2017-01-21T05:02:01.329Z,87.02
2017-01-21T05:03:01.316Z,87.49
2017-01-21T05:04:01.302Z,87.21
2017-01-21T05:05:01.290Z,87.3
2017-01-21T05:06:01.282Z,87.4
2017-01-21T05:07:01.265Z,87.4
2017-01-21T05:08:01.253Z,87.68
2017-01-21T05:09:01.244Z,88.06
2017-01-21T05:10:01.228Z,88.44
2017-01-21T05:11:01.213Z,88.44
2017-01-21T05:12:01.201Z,88.25
2017-01-21T05:13:01.574Z,88.06
2017-01-21T05:14:01.176Z,87.68
2017-01-21T05:15:01.161Z,88.63
2017-01-21T05:16:01.151Z,88.73
2017-01-21T05:17:01.136Z,88.63
2017-01-21T05:18:01.510Z,88.35
2017-01-21T05:19:01.111Z,88.44
2017-01-21T05:20:01.102Z,88.44
2017-01-21T05:21:01.087Z,88.63
2017-01-21T05:22:01.071Z,88.63
2017-01-21T05:23:01.060Z,88.73
2017-01-21T05:24:01.049Z,88.54
2017-01-21T05:25:01.033Z,88.63
2017-01-21T05:26:01.020Z,88.16
2017-01-21T05:27:01.008Z,88.73
2017-01-21T05:28:00.995Z,88.73
2017-01-21T05:29:00.981Z,88.54
2017-01-21T05:30:00.969Z,89.29
2017-01-21T05:31:00.958Z,88.63
2017-01-21T05:32:00.943Z,88.54
2017-01-21T05:33:00.934Z,88.44
2017-01-21T05:34:00.920Z,88.35
2017-01-21T05:35:00.905Z,88.73
2017-01-21T05:36:00.892Z,88.54
2017-01-21T05:37:00.878Z,88.82
2017-01-21T05:38:00.866Z,88.63
2017-01-21T05:39:01.241Z,88.54
2017-01-21T05:40:00.841Z,88.54
2017-01-21T05:41:00.827Z,88.73
2017-01-21T05:42:00.817Z,88.73
2017-01-21T05:43:00.801Z,88.44
2017-01-21T05:44:00.789Z,88.54
2017-01-21T05:45:00.779Z,88.25
2017-01-21T05:46:00.763Z,88.54
2017-01-21T05:47:00.751Z,88.54
2017-01-21T05:48:00.743Z,88.16
2017-01-21T05:49:00.727Z,88.54
2017-01-21T05:50:00.711Z,88.92
2017-01-21T05:51:00.699Z,89.01
2017-01-21T05:52:00.687Z,88.82
2017-01-21T05:53:00.674Z,88.63
2017-01-21T05:54:00.661Z,88.63
2017-01-21T05:55:00.649Z,88.73
2017-01-21T05:56:00.635Z,88.16
2017-01-21T05:57:00.622Z,88.35
2017-01-21T05:58:00.610Z,88.06
2017-01-21T05:59:00.596Z,88.44
2017-01-21T06:00:00.585Z,88.16
2017-01-21T06:01:00.574Z,88.63
2017-01-21T06:02:00.557Z,88.82
2017-01-21T06:03:00.546Z,88.73
2017-01-21T06:04:00.534Z,89.01
2017-01-21T06:05:00.519Z,88.54
2017-01-21T06:06:00.506Z,88.63
2017-01-21T06:07:00.495Z,88.44
2017-01-21T06:08:00.481Z,88.73
2017-01-21T06:09:00.468Z,88.73
2017-01-21T06:10:00.456Z,88.92
2017-01-21T06:11:00.442Z,87.87
2017-01-21T06:12:00.429Z,88.25
2017-01-21T06:13:00.418Z,87.97
2017-01-21T06:14:00.404Z,88.06
2017-01-21T06:15:00.395Z,88.25
2017-01-21T06:16:00.378Z,88.25
2017-01-21T06:17:00.366Z,88.06
2017-01-21T06:18:00.353Z,88.44
2017-01-21T06:19:00.342Z,88.06
2017-01-21T06:20:00.328Z,88.25
2017-01-21T06:21:00.316Z,88.06
2017-01-21T06:22:00.304Z,87.49
2017-01-21T06:23:00.292Z,87.4
2017-01-21T06:24:00.277Z,87.77
2017-01-21T06:25:00.265Z,87.68
2017-01-21T06:26:00.253Z,87.59
2017-01-21T06:27:00.238Z,87.59
2017-01-21T06:28:00.228Z,87.59
2017-01-21T06:29:00.215Z,87.68
2017-01-21T06:30:00.199Z,87.68
2017-01-21T06:31:00.192Z,87.77
2017-01-21T06:32:00.174Z,87.68
2017-01-21T06:33:00.165Z,87.97
2017-01-21T06:34:00.149Z,87.97
2017-01-21T06:35:00.137Z,88.06
2017-01-21T06:36:00.122Z,87.97
2017-01-21T06:37:00.109Z,88.06
2017-01-21T06:38:00.100Z,88.06
2017-01-21T06:39:00.084Z,88.06
2017-01-21T06:40:00.070Z,88.16
2017-01-21T06:41:00.058Z,88.06
2017-01-21T06:42:00.045Z,88.06
2017-01-21T06:43:00.032Z,88.06
2017-01-21T06:44:00.019Z,88.25
2017-01-21T06:45:00.007Z,88.25
2017-01-21T06:45:59.994Z,88.06
2017-01-21T06:46:59.982Z,88.06
2017-01-21T06:47:59.969Z,87.87
2017-01-21T06:48:59.954Z,88.16
2017-01-21T06:49:59.942Z,88.06
2017-01-21T06:50:59.928Z,88.25
2017-01-21T06:51:59.915Z,88.06
2017-01-21T06:52:59.903Z,88.06
2017-01-21T06:53:59.891Z,88.25
2017-01-21T06:54:59.878Z,88.16
2017-01-21T06:55:59.864Z,88.16
2017-01-21T06:56:59.851Z,88.06
2017-01-21T06:57:59.839Z,88.16
2017-01-21T06:58:59.826Z,88.06
2017-01-21T06:59:59.813Z,88.06
2017-01-21T07:00:59.801Z,88.54
2017-01-21T07:01:59.792Z,88.25
2017-01-21T07:02:59.772Z,87.12
2017-01-21T07:03:59.761Z,88.16
2017-01-21T07:04:59.749Z,88.06
2017-01-21T07:05:59.736Z,87.97
2017-01-21T07:06:59.722Z,88.25
2017-01-21T07:07:59.714Z,88.25
2017-01-21T07:08:59.698Z,87.59
2017-01-21T07:09:59.683Z,87.49
2017-01-21T07:10:59.670Z,87.59
2017-01-21T07:11:59.662Z,87.49
2017-01-21T07:12:59.647Z,87.4
2017-01-21T07:13:59.632Z,87.49
2017-01-21T07:14:59.618Z,87.87
2017-01-21T07:15:59.611Z,87.77
2017-01-21T07:16:59.594Z,87.68
2017-01-21T07:17:59.580Z,87.77
2017-01-21T07:18:59.569Z,87.77
2017-01-21T07:19:59.562Z,87.77
2017-01-21T07:20:59.542Z,87.49
2017-01-21T07:21:59.530Z,87.49
2017-01-21T07:22:59.517Z,87.87
2017-01-21T07:23:59.504Z,87.68
2017-01-21T07:24:59.490Z,87.21
2017-01-21T07:25:59.478Z,87.59
2017-01-21T07:26:59.464Z,87.4
2017-01-21T07:27:59.453Z,87.4
2017-01-21T07:28:59.439Z,87.3
2017-01-21T07:29:59.428Z,87.49
2017-01-21T07:30:59.417Z,87.59
2017-01-21T07:31:59.401Z,87.3
2017-01-21T07:32:59.390Z,87.4
2017-01-21T07:33:59.376Z,87.3
2017-01-21T07:34:59.363Z,86.74
2017-01-21T07:35:59.351Z,86.59
2017-01-21T07:36:59.338Z,86.68
2017-01-21T07:37:59.324Z,86.59
2017-01-21T07:38:59.314Z,86.3
2017-01-21T07:39:59.300Z,86.59
2017-01-21T07:40:59.287Z,86.21
2017-01-21T07:41:59.277Z,86.21
2017-01-21T07:42:59.263Z,86.4
2017-01-21T07:43:59.251Z,85.83
2017-01-21T07:44:59.238Z,85.83
2017-01-21T07:45:59.226Z,85.83
2017-01-21T07:46:59.211Z,86.11
2017-01-21T07:47:59.200Z,85.64
2017-01-21T07:48:59.190Z,86.02
2017-01-21T07:49:59.175Z,85.64
2017-01-21T07:50:59.162Z,85.36
2017-01-21T07:51:59.151Z,85.55
2017-01-21T07:52:59.138Z,85.45
2017-01-21T07:53:59.127Z,85.45
2017-01-21T07:54:59.115Z,85.55
2017-01-21T07:55:59.102Z,84.88
2017-01-21T07:56:59.093Z,84.78
2017-01-21T07:57:59.083Z,84.98
2017-01-21T07:58:59.065Z,84.88
2017-01-21T07:59:59.053Z,84.5
2017-01-21T08:00:59.040Z,84.78
2017-01-21T08:01:59.031Z,85.07
2017-01-21T08:02:59.015Z,85.07
2017-01-21T08:03:59.008Z,84.41
2017-01-21T08:04:58.993Z,84.59
2017-01-21T08:05:58.978Z,84.22
2017-01-21T08:06:59.351Z,84.12
2017-01-21T08:07:58.956Z,84.12
2017-01-21T08:08:58.942Z,84.31
2017-01-21T08:09:58.928Z,84.69
2017-01-21T08:10:58.916Z,84.5
2017-01-21T08:11:58.904Z,84.22
2017-01-21T08:12:58.893Z,84.22
2017-01-21T08:13:58.879Z,84.12
2017-01-21T08:14:58.870Z,84.12
2017-01-21T08:15:58.855Z,84.03
2017-01-21T08:16:58.844Z,84.22
2017-01-21T08:17:58.833Z,84.26
2017-01-21T08:18:58.821Z,83.65
2017-01-21T08:19:58.808Z,83.94
2017-01-21T08:20:58.794Z,83.84
2017-01-21T08:21:58.788Z,83.97
2017-01-21T08:22:58.771Z,83.97
2017-01-21T08:23:58.759Z,83.31
2017-01-21T08:24:58.748Z,83.31
2017-01-21T08:25:58.735Z,83.59
2017-01-21T08:26:58.722Z,83.59
2017-01-21T08:27:58.710Z,83.46
2017-01-21T08:28:58.697Z,83.59
2017-01-21T08:29:58.695Z,83.59
2017-01-21T08:30:58.676Z,83.03
2017-01-21T08:31:58.664Z,83.31
2017-01-21T08:32:58.651Z,83.4
2017-01-21T08:33:58.640Z,82.93
2017-01-21T08:34:58.627Z,83.03
2017-01-21T08:35:58.615Z,83.12
2017-01-21T08:36:58.610Z,83.4
2017-01-21T08:37:58.590Z,83.4
2017-01-21T08:38:58.583Z,83.12
2017-01-21T08:39:58.569Z,82.93
2017-01-21T08:40:58.556Z,82.27
2017-01-21T08:41:58.546Z,82.84
2017-01-21T08:42:58.535Z,82.74
2017-01-21T08:43:58.519Z,82.74
2017-01-21T08:44:58.509Z,82.84
2017-01-21T08:45:58.496Z,82.55
2017-01-21T08:46:58.486Z,82.65
2017-01-21T08:47:58.472Z,82.65
2017-01-21T08:48:58.462Z,82.55
2017-01-21T08:49:58.448Z,82.74
2017-01-21T08:50:58.438Z,82.65
2017-01-21T08:51:58.426Z,82.74
2017-01-21T08:52:58.413Z,82.08
2017-01-21T08:53:58.401Z,82.08
2017-01-21T08:54:58.390Z,82.46
2017-01-21T08:55:58.380Z,81.88
2017-01-21T08:56:58.368Z,82.27
2017-01-21T08:57:58.356Z,81.6
2017-01-21T08:58:58.343Z,81.7
2017-01-21T08:59:58.340Z,81.7
2017-01-21T09:00:58.324Z,81.98
2017-01-21T09:01:58.310Z,81.41
2017-01-21T09:02:58.299Z,81.41
2017-01-21T09:03:58.285Z,81.32
2017-01-21T09:04:58.275Z,81.13
2017-01-21T09:05:58.263Z,81.13
2017-01-21T09:06:58.253Z,81.32
2017-01-21T09:07:58.238Z,81.13
2017-01-21T09:08:58.228Z,80.75
2017-01-21T09:09:58.217Z,80.75
2017-01-21T09:10:58.205Z,81.13
2017-01-21T09:11:58.194Z,81.41
2017-01-21T09:12:58.184Z,81.23
2017-01-21T09:13:58.172Z,81.41
2017-01-21T09:14:58.161Z,80.94
2017-01-21T09:15:58.149Z,80.84
2017-01-21T09:16:58.138Z,80.65
2017-01-21T09:17:58.130Z,80.75
2017-01-21T09:18:58.114Z,81.04
2017-01-21T09:19:58.106Z,80.79
2017-01-21T09:20:58.094Z,80.6
2017-01-21T09:21:58.084Z,81.07
2017-01-21T09:22:58.458Z,80.69
2017-01-21T09:23:58.058Z,80.51
2017-01-21T09:24:58.049Z,80.22
2017-01-21T09:25:58.036Z,80.22
2017-01-21T09:26:58.028Z,79.94
2017-01-21T09:27:58.014Z,79.65
2017-01-21T09:28:58.004Z,80.22
2017-01-21T09:29:57.991Z,80.13
2017-01-21T09:30:57.984Z,80.32
2017-01-21T09:31:57.970Z,80.13
2017-01-21T09:32:57.959Z,79.74
2017-01-21T09:33:57.948Z,79.55
2017-01-21T09:34:57.938Z,79.74
2017-01-21T09:35:57.927Z,79.65
2017-01-21T09:36:57.914Z,78.89
2017-01-21T09:37:57.906Z,79.65
2017-01-21T09:38:57.891Z,79.36
2017-01-21T09:39:57.883Z,79.36
2017-01-21T09:40:57.869Z,79.36
2017-01-21T09:41:57.862Z,79.46
2017-01-21T09:42:57.849Z,79.27
2017-01-21T09:43:57.837Z,79.46
2017-01-21T09:44:57.832Z,79.17
2017-01-21T09:45:57.814Z,78.89
2017-01-21T09:46:57.805Z,78.8
2017-01-21T09:47:57.792Z,78.89
2017-01-21T09:48:57.783Z,79.65
2017-01-21T09:49:57.770Z,78.89
2017-01-21T09:50:58.154Z,79.36
2017-01-21T09:51:57.752Z,79.46
2017-01-21T09:52:57.740Z,79.65
2017-01-21T09:53:57.727Z,79.36
2017-01-21T09:54:57.716Z,78.89
2017-01-21T09:55:57.713Z,78.8
2017-01-21T09:56:57.696Z,78.89
2017-01-21T09:57:57.682Z,78.99
2017-01-21T09:58:57.673Z,78.42
2017-01-21T09:59:57.663Z,78.32
2017-01-21T10:00:57.653Z,78.23
2017-01-21T10:01:57.641Z,78.23
2017-01-21T10:02:57.629Z,78.32
2017-01-21T10:03:57.617Z,78.51
2017-01-21T10:04:57.610Z,78.42
2017-01-21T10:05:57.595Z,78.03
2017-01-21T10:06:57.589Z,78.61
2017-01-21T10:07:57.572Z,78.36
2017-01-21T10:08:57.563Z,77.7
2017-01-21T10:09:57.551Z,78.13
2017-01-21T10:10:57.543Z,77.94
2017-01-21T10:11:57.530Z,78.27
2017-01-21T10:12:57.524Z,78.03
2017-01-21T10:13:57.511Z,77.94
2017-01-21T10:14:57.498Z,78.32
2017-01-21T10:15:57.489Z,78.03
2017-01-21T10:16:57.480Z,78.03
2017-01-21T10:17:57.465Z,78.03
2017-01-21T10:18:57.456Z,77.89
2017-01-21T10:19:57.444Z,77.79
2017-01-21T10:20:57.434Z,77.41
2017-01-21T10:21:57.423Z,77.79
2017-01-21T10:22:57.412Z,78.17
2017-01-21T10:23:57.403Z,77.98
2017-01-21T10:24:57.396Z,77.51
2017-01-21T10:25:57.380Z,77.79
2017-01-21T10:26:57.399Z,77.31
2017-01-21T10:27:57.358Z,77.51
2017-01-21T10:28:57.349Z,77.51
2017-01-21T10:29:57.339Z,77.03
2017-01-21T10:30:57.330Z,76.93
2017-01-21T10:31:57.317Z,77.03
2017-01-21T10:32:57.308Z,77.31
2017-01-21T10:33:57.296Z,76.65
2017-01-21T10:34:57.285Z,77.12
2017-01-21T10:35:57.278Z,77.03
2017-01-21T10:36:57.266Z,77.03
2017-01-21T10:37:57.254Z,77.12
2017-01-21T10:38:57.244Z,76.46
2017-01-21T10:39:57.235Z,76.56
2017-01-21T10:40:57.224Z,76.56
2017-01-21T10:41:57.215Z,76.65
2017-01-21T10:42:57.204Z,76.56
2017-01-21T10:43:57.192Z,76.56
2017-01-21T10:44:57.183Z,76.56
2017-01-21T10:45:57.170Z,76.08
2017-01-21T10:46:57.168Z,76.27
2017-01-21T10:47:57.152Z,75.79
2017-01-21T10:48:57.141Z,76.18
2017-01-21T10:49:57.130Z,75.23
2017-01-21T10:50:57.122Z,75.42
2017-01-21T10:51:57.111Z,75.79
2017-01-21T10:52:57.100Z,75.7
2017-01-21T10:53:57.475Z,75.79
2017-01-21T10:54:57.081Z,75.89
2017-01-21T10:55:57.074Z,76.03
2017-01-21T10:56:57.060Z,76.03
2017-01-21T10:57:57.049Z,75.84
2017-01-21T10:58:57.049Z,75.17
2017-01-21T10:59:57.033Z,75.26
2017-01-21T11:00:57.019Z,74.88
2017-01-21T11:01:57.008Z,75.07
2017-01-21T11:02:56.999Z,74.41
2017-01-21T11:03:56.992Z,74.6
2017-01-21T11:04:56.981Z,74.31
2017-01-21T11:05:56.970Z,74.31
2017-01-21T11:06:56.961Z,73.84
2017-01-21T11:07:56.950Z,74.03
2017-01-21T11:08:56.944Z,73.93
2017-01-21T11:09:56.932Z,74.41
2017-01-21T11:10:56.923Z,74.03
2017-01-21T11:11:56.916Z,73.84
2017-01-21T11:12:56.902Z,73.93
2017-01-21T11:13:56.895Z,73.65
2017-01-21T11:14:56.884Z,73.93
2017-01-21T11:15:56.874Z,73.46
2017-01-21T11:16:56.867Z,73.84
2017-01-21T11:17:56.856Z,73.65
2017-01-21T11:18:56.845Z,73.36
2017-01-21T11:19:56.836Z,73.46
2017-01-21T11:20:57.215Z,73.08
2017-01-21T11:21:56.818Z,73.27
2017-01-21T11:22:56.807Z,72.89
2017-01-21T11:23:56.796Z,72.7
2017-01-21T11:24:56.793Z,73.08
2017-01-21T11:25:56.777Z,72.92
2017-01-21T11:26:56.768Z,72.89
2017-01-21T11:27:56.760Z,72.41
2017-01-21T11:28:56.750Z,72.51
2017-01-21T11:29:56.742Z,73.02
2017-01-21T11:30:56.731Z,72.79
2017-01-21T11:31:56.720Z,73.02
2017-01-21T11:32:56.713Z,73.11
2017-01-21T11:33:56.702Z,73.02
2017-01-21T11:34:56.695Z,72.35
2017-01-21T11:35:57.069Z,72.83
2017-01-21T11:36:56.673Z,72.83
2017-01-21T11:37:56.664Z,72.55
2017-01-21T11:38:56.655Z,72.07
2017-01-21T11:39:56.646Z,72.16
2017-01-21T11:40:56.636Z,72.55
2017-01-21T11:41:56.628Z,72.55
2017-01-21T11:42:56.620Z,72.35
2017-01-21T11:43:56.615Z,72.35
2017-01-21T11:44:56.598Z,71.78
2017-01-21T11:45:56.596Z,72.16
2017-01-21T11:46:56.582Z,71.69
2017-01-21T11:47:56.572Z,72.13
2017-01-21T11:48:56.561Z,72.13
2017-01-21T11:49:56.551Z,72.22
2017-01-21T11:50:56.543Z,72.89
2017-01-21T11:51:56.536Z,72.99
2017-01-21T11:52:56.529Z,73.08
2017-01-21T11:53:56.513Z,72.89
2017-01-21T11:54:56.506Z,72.64
2017-01-21T11:55:56.495Z,72.83
2017-01-21T11:56:56.486Z,72.55
2017-01-21T11:57:56.477Z,72.55
2017-01-21T11:58:56.467Z,72.45
2017-01-21T11:59:56.465Z,72.45
2017-01-21T12:00:56.448Z,71.78
2017-01-21T12:01:56.442Z,72.16
2017-01-21T12:02:56.433Z,72.64
2017-01-21T12:03:56.419Z,72.45
2017-01-21T12:04:56.411Z,72.45
2017-01-21T12:05:56.400Z,71.88
2017-01-21T12:06:56.393Z,71.97
2017-01-21T12:07:56.381Z,71.31
2017-01-21T12:08:56.395Z,71.5
2017-01-21T12:09:56.362Z,71.69
2017-01-21T12:10:56.356Z,71.97
2017-01-21T12:11:56.344Z,71.97
2017-01-21T12:12:56.335Z,72.32
2017-01-21T12:13:56.329Z,72.13
2017-01-21T12:14:56.316Z,72.32
2017-01-21T12:15:56.310Z,72.13
2017-01-21T12:16:56.298Z,71.94
2017-01-21T12:17:56.288Z,72.03
2017-01-21T12:18:56.281Z,72.32
2017-01-21T12:19:56.675Z,72.22
2017-01-21T12:20:56.259Z,72.41
2017-01-21T12:21:56.249Z,72.7
2017-01-21T12:22:56.242Z,72.41
2017-01-21T12:23:56.232Z,72.51
2017-01-21T12:24:56.225Z,72.99
2017-01-21T12:25:56.214Z,72.89
2017-01-21T12:26:56.202Z,72.51
2017-01-21T12:27:56.194Z,72.51
2017-01-21T12:28:56.188Z,72.55
2017-01-21T12:29:56.173Z,72.07
2017-01-21T12:30:56.165Z,71.97
2017-01-21T12:31:56.153Z,71.78
2017-01-21T12:32:56.145Z,71.88
2017-01-21T12:33:56.137Z,71.84
2017-01-21T12:34:56.125Z,71.69
2017-01-21T12:35:56.117Z,71.78
2017-01-21T12:36:56.106Z,71.78
2017-01-21T12:37:56.099Z,71.75
2017-01-21T12:38:56.092Z,72.13
2017-01-21T12:39:56.078Z,71.84
2017-01-21T12:40:56.069Z,71.78
2017-01-21T12:41:56.059Z,71.97
2017-01-21T12:42:56.056Z,71.78
2017-01-21T12:43:56.043Z,71.97
2017-01-21T12:44:56.030Z,71.69
2017-01-21T12:45:56.022Z,71.59
2017-01-21T12:46:56.012Z,71.02
2017-01-21T12:47:56.006Z,71.02
2017-01-21T12:48:55.994Z,71.18
2017-01-21T12:49:55.981Z,71.08
2017-01-21T12:50:55.973Z,71.46
2017-01-21T12:51:55.973Z,71.37
2017-01-21T12:52:55.953Z,71.75
2017-01-21T12:53:55.946Z,71.37